sensor_id;sensor_type;location;lat;lon;timestamp;P1;durP1;ratioP1;P2;durP2;ratioP2
22525;SDS011;11429;50.842;4.386;2023-04-03T00:01:11;9.35;;;6.28;;
22525;SDS011;11429;50.842;4.386;2023-04-03T00:03:37;10.63;;;6.60;;
22525;SDS011;11429;50.842;4.386;2023-04-03T00:06:03;9.73;;;5.82;;
22525;SDS011;11429;50.842;4.386;2023-04-03T00:08:31;8.95;;;5.63;;
22525;SDS011;11429;50.842;4.386;2023-04-03T00:10:57;10.48;;;6.30;;
22525;SDS011;11429;50.842;4.386;2023-04-03T00:13:24;9.68;;;5.72;;
22525;SDS011;11429;50.842;4.386;2023-04-03T00:15:50;9.75;;;5.90;;
22525;SDS011;11429;50.842;4.386;2023-04-03T00:18:16;9.05;;;6.15;;
22525;SDS011;11429;50.842;4.386;2023-04-03T00:20:42;9.55;;;6.28;;
22525;SDS011;11429;50.842;4.386;2023-04-03T00:23:08;8.55;;;5.80;;
22525;SDS011;11429;50.842;4.386;2023-04-03T00:25:33;11.90;;;5.82;;
22525;SDS011;11429;50.842;4.386;2023-04-03T00:27:59;9.65;;;6.00;;
22525;SDS011;11429;50.842;4.386;2023-04-03T00:30:26;11.07;;;6.18;;
22525;SDS011;11429;50.842;4.386;2023-04-03T00:32:51;9.38;;;6.15;;
22525;SDS011;11429;50.842;4.386;2023-04-03T00:35:18;7.93;;;5.82;;
22525;SDS011;11429;50.842;4.386;2023-04-03T00:37:45;7.72;;;5.68;;
22525;SDS011;11429;50.842;4.386;2023-04-03T00:40:12;9.30;;;5.32;;
22525;SDS011;11429;50.842;4.386;2023-04-03T00:42:41;8.40;;;5.78;;
22525;SDS011;11429;50.842;4.386;2023-04-03T00:47:36;9.80;;;5.75;;
22525;SDS011;11429;50.842;4.386;2023-04-03T00:50:04;9.50;;;5.53;;
22525;SDS011;11429;50.842;4.386;2023-04-03T00:52:30;8.52;;;5.78;;
22525;SDS011;11429;50.842;4.386;2023-04-03T00:54:58;9.98;;;5.93;;
22525;SDS011;11429;50.842;4.386;2023-04-03T00:57:26;12.52;;;6.20;;
22525;SDS011;11429;50.842;4.386;2023-04-03T00:59:55;9.68;;;5.82;;
22525;SDS011;11429;50.842;4.386;2023-04-03T01:02:26;9.02;;;5.57;;
22525;SDS011;11429;50.842;4.386;2023-04-03T01:04:52;7.57;;;5.97;;
22525;SDS011;11429;50.842;4.386;2023-04-03T01:07:19;9.98;;;5.90;;
22525;SDS011;11429;50.842;4.386;2023-04-03T01:09:48;7.97;;;5.55;;
22525;SDS011;11429;50.842;4.386;2023-04-03T01:12:21;12.13;;;6.15;;
22525;SDS011;11429;50.842;4.386;2023-04-03T01:14:49;9.90;;;5.90;;
22525;SDS011;11429;50.842;4.386;2023-04-03T01:25:26;9.48;;;6.00;;
22525;SDS011;11429;50.842;4.386;2023-04-03T01:27:52;11.30;;;5.93;;
22525;SDS011;11429;50.842;4.386;2023-04-03T01:30:19;10.43;;;6.18;;
22525;SDS011;11429;50.842;4.386;2023-04-03T01:32:46;8.70;;;6.10;;
22525;SDS011;11429;50.842;4.386;2023-04-03T01:35:12;7.88;;;5.43;;
22525;SDS011;11429;50.842;4.386;2023-04-03T01:37:37;10.07;;;5.90;;
22525;SDS011;11429;50.842;4.386;2023-04-03T01:40:03;10.93;;;5.63;;
22525;SDS011;11429;50.842;4.386;2023-04-03T01:42:30;11.13;;;6.18;;
22525;SDS011;11429;50.842;4.386;2023-04-03T01:44:56;9.65;;;6.47;;
22525;SDS011;11429;50.842;4.386;2023-04-03T01:47:22;9.82;;;6.35;;
22525;SDS011;11429;50.842;4.386;2023-04-03T01:49:47;10.52;;;6.25;;
22525;SDS011;11429;50.842;4.386;2023-04-03T01:52:13;9.85;;;6.25;;
22525;SDS011;11429;50.842;4.386;2023-04-03T01:54:39;9.02;;;6.38;;
22525;SDS011;11429;50.842;4.386;2023-04-03T01:57:05;10.23;;;6.47;;
22525;SDS011;11429;50.842;4.386;2023-04-03T01:59:30;13.20;;;6.30;;
22525;SDS011;11429;50.842;4.386;2023-04-03T02:01:56;9.15;;;6.28;;
22525;SDS011;11429;50.842;4.386;2023-04-03T02:04:22;9.93;;;6.43;;
22525;SDS011;11429;50.842;4.386;2023-04-03T02:06:47;8.32;;;6.10;;
22525;SDS011;11429;50.842;4.386;2023-04-03T02:09:13;11.23;;;6.35;;
22525;SDS011;11429;50.842;4.386;2023-04-03T02:11:39;7.30;;;5.88;;
22525;SDS011;11429;50.842;4.386;2023-04-03T02:14:05;10.65;;;6.45;;
22525;SDS011;11429;50.842;4.386;2023-04-03T02:16:31;9.88;;;6.35;;
22525;SDS011;11429;50.842;4.386;2023-04-03T02:18:56;8.13;;;6.18;;
22525;SDS011;11429;50.842;4.386;2023-04-03T02:21:22;11.63;;;6.55;;
22525;SDS011;11429;50.842;4.386;2023-04-03T02:23:48;11.55;;;6.80;;
22525;SDS011;11429;50.842;4.386;2023-04-03T02:26:15;9.60;;;6.53;;
22525;SDS011;11429;50.842;4.386;2023-04-03T02:28:41;8.70;;;6.20;;
22525;SDS011;11429;50.842;4.386;2023-04-03T02:31:07;7.53;;;6.03;;
22525;SDS011;11429;50.842;4.386;2023-04-03T02:33:35;8.70;;;6.53;;
22525;SDS011;11429;50.842;4.386;2023-04-03T02:36:02;10.82;;;6.28;;
22525;SDS011;11429;50.842;4.386;2023-04-03T02:38:31;7.68;;;6.43;;
22525;SDS011;11429;50.842;4.386;2023-04-03T02:41:03;10.02;;;6.13;;
22525;SDS011;11429;50.842;4.386;2023-04-03T02:43:31;10.63;;;6.90;;
22525;SDS011;11429;50.842;4.386;2023-04-03T02:45:57;8.68;;;6.47;;
22525;SDS011;11429;50.842;4.386;2023-04-03T02:48:23;11.57;;;6.93;;
22525;SDS011;11429;50.842;4.386;2023-04-03T02:50:49;11.75;;;6.70;;
22525;SDS011;11429;50.842;4.386;2023-04-03T02:53:15;10.60;;;6.57;;
22525;SDS011;11429;50.842;4.386;2023-04-03T02:55:41;8.88;;;6.25;;
22525;SDS011;11429;50.842;4.386;2023-04-03T02:58:07;9.93;;;6.78;;
22525;SDS011;11429;50.842;4.386;2023-04-03T03:00:32;11.65;;;6.72;;
22525;SDS011;11429;50.842;4.386;2023-04-03T03:02:58;11.40;;;6.63;;
22525;SDS011;11429;50.842;4.386;2023-04-03T03:05:25;9.75;;;7.30;;
22525;SDS011;11429;50.842;4.386;2023-04-03T03:07:51;9.20;;;6.40;;
22525;SDS011;11429;50.842;4.386;2023-04-03T03:10:17;9.82;;;6.80;;
22525;SDS011;11429;50.842;4.386;2023-04-03T03:12:42;10.95;;;7.28;;
22525;SDS011;11429;50.842;4.386;2023-04-03T03:15:08;12.88;;;6.90;;
22525;SDS011;11429;50.842;4.386;2023-04-03T03:17:34;10.80;;;6.65;;
22525;SDS011;11429;50.842;4.386;2023-04-03T03:20:01;12.63;;;6.97;;
22525;SDS011;11429;50.842;4.386;2023-04-03T03:22:27;10.48;;;6.95;;
22525;SDS011;11429;50.842;4.386;2023-04-03T03:24:53;11.27;;;6.65;;
22525;SDS011;11429;50.842;4.386;2023-04-03T03:27:19;8.50;;;6.65;;
22525;SDS011;11429;50.842;4.386;2023-04-03T03:29:45;10.20;;;7.07;;
22525;SDS011;11429;50.842;4.386;2023-04-03T03:32:12;12.60;;;6.75;;
22525;SDS011;11429;50.842;4.386;2023-04-03T03:34:37;9.27;;;6.55;;
22525;SDS011;11429;50.842;4.386;2023-04-03T03:37:03;9.50;;;6.75;;
22525;SDS011;11429;50.842;4.386;2023-04-03T03:39:29;9.80;;;6.63;;
22525;SDS011;11429;50.842;4.386;2023-04-03T03:41:55;9.95;;;6.82;;
22525;SDS011;11429;50.842;4.386;2023-04-03T03:44:21;9.82;;;6.53;;
22525;SDS011;11429;50.842;4.386;2023-04-03T03:46:46;10.00;;;6.60;;
22525;SDS011;11429;50.842;4.386;2023-04-03T03:49:12;10.88;;;6.90;;
22525;SDS011;11429;50.842;4.386;2023-04-03T03:51:38;13.85;;;7.30;;
22525;SDS011;11429;50.842;4.386;2023-04-03T03:54:05;9.65;;;6.90;;
22525;SDS011;11429;50.842;4.386;2023-04-03T03:56:31;13.20;;;7.68;;
22525;SDS011;11429;50.842;4.386;2023-04-03T03:58:56;14.55;;;7.47;;
22525;SDS011;11429;50.842;4.386;2023-04-03T04:01:23;12.10;;;7.60;;
22525;SDS011;11429;50.842;4.386;2023-04-03T04:03:49;8.85;;;7.20;;
22525;SDS011;11429;50.842;4.386;2023-04-03T04:06:15;10.30;;;7.03;;
22525;SDS011;11429;50.842;4.386;2023-04-03T04:08:41;11.82;;;7.28;;
22525;SDS011;11429;50.842;4.386;2023-04-03T04:11:07;10.90;;;7.20;;
22525;SDS011;11429;50.842;4.386;2023-04-03T04:13:33;11.32;;;7.05;;
22525;SDS011;11429;50.842;4.386;2023-04-03T04:15:59;11.05;;;6.82;;
22525;SDS011;11429;50.842;4.386;2023-04-03T04:18:24;12.07;;;7.35;;
22525;SDS011;11429;50.842;4.386;2023-04-03T04:20:50;11.43;;;7.65;;
22525;SDS011;11429;50.842;4.386;2023-04-03T04:23:16;9.10;;;8.02;;
22525;SDS011;11429;50.842;4.386;2023-04-03T04:25:46;10.93;;;7.88;;
22525;SDS011;11429;50.842;4.386;2023-04-03T04:28:13;11.38;;;7.43;;
22525;SDS011;11429;50.842;4.386;2023-04-03T04:30:39;13.35;;;8.27;;
22525;SDS011;11429;50.842;4.386;2023-04-03T04:33:04;11.45;;;7.82;;
22525;SDS011;11429;50.842;4.386;2023-04-03T04:35:30;10.50;;;8.00;;
22525;SDS011;11429;50.842;4.386;2023-04-03T04:37:56;12.55;;;8.55;;
22525;SDS011;11429;50.842;4.386;2023-04-03T04:40:22;11.25;;;7.85;;
22525;SDS011;11429;50.842;4.386;2023-04-03T04:42:47;12.32;;;8.23;;
22525;SDS011;11429;50.842;4.386;2023-04-03T04:45:13;13.65;;;8.65;;
22525;SDS011;11429;50.842;4.386;2023-04-03T04:47:40;12.90;;;8.50;;
22525;SDS011;11429;50.842;4.386;2023-04-03T04:50:06;15.75;;;8.77;;
22525;SDS011;11429;50.842;4.386;2023-04-03T04:52:32;12.38;;;8.68;;
22525;SDS011;11429;50.842;4.386;2023-04-03T04:54:57;11.40;;;8.45;;
22525;SDS011;11429;50.842;4.386;2023-04-03T04:57:23;12.43;;;8.55;;
22525;SDS011;11429;50.842;4.386;2023-04-03T04:59:49;13.88;;;9.00;;
22525;SDS011;11429;50.842;4.386;2023-04-03T05:02:15;12.80;;;9.02;;
22525;SDS011;11429;50.842;4.386;2023-04-03T05:04:41;12.15;;;9.13;;
22525;SDS011;11429;50.842;4.386;2023-04-03T05:07:06;12.38;;;8.82;;
22525;SDS011;11429;50.842;4.386;2023-04-03T05:09:32;12.75;;;9.15;;
22525;SDS011;11429;50.842;4.386;2023-04-03T05:11:58;14.05;;;9.70;;
22525;SDS011;11429;50.842;4.386;2023-04-03T05:14:24;12.32;;;9.25;;
22525;SDS011;11429;50.842;4.386;2023-04-03T05:16:49;12.68;;;9.77;;
22525;SDS011;11429;50.842;4.386;2023-04-03T05:19:19;13.23;;;9.27;;
22525;SDS011;11429;50.842;4.386;2023-04-03T05:21:47;10.82;;;9.13;;
22525;SDS011;11429;50.842;4.386;2023-04-03T05:24:15;16.77;;;10.60;;
22525;SDS011;11429;50.842;4.386;2023-04-03T05:26:41;13.05;;;9.70;;
22525;SDS011;11429;50.842;4.386;2023-04-03T05:29:08;13.93;;;10.00;;
22525;SDS011;11429;50.842;4.386;2023-04-03T05:31:33;13.20;;;10.32;;
22525;SDS011;11429;50.842;4.386;2023-04-03T05:33:59;11.50;;;9.60;;
22525;SDS011;11429;50.842;4.386;2023-04-03T05:36:25;13.68;;;10.15;;
22525;SDS011;11429;50.842;4.386;2023-04-03T05:38:51;15.82;;;10.98;;
22525;SDS011;11429;50.842;4.386;2023-04-03T05:41:17;13.15;;;9.82;;
22525;SDS011;11429;50.842;4.386;2023-04-03T05:43:44;13.10;;;9.85;;
22525;SDS011;11429;50.842;4.386;2023-04-03T05:46:13;15.30;;;10.00;;
22525;SDS011;11429;50.842;4.386;2023-04-03T05:48:40;13.90;;;9.43;;
22525;SDS011;11429;50.842;4.386;2023-04-03T05:51:06;14.93;;;10.10;;
22525;SDS011;11429;50.842;4.386;2023-04-03T05:53:35;13.38;;;9.70;;
22525;SDS011;11429;50.842;4.386;2023-04-03T05:56:04;12.80;;;10.50;;
22525;SDS011;11429;50.842;4.386;2023-04-03T05:58:30;13.80;;;10.13;;
22525;SDS011;11429;50.842;4.386;2023-04-03T06:00:56;14.50;;;11.15;;
22525;SDS011;11429;50.842;4.386;2023-04-03T06:03:22;14.38;;;9.95;;
22525;SDS011;11429;50.842;4.386;2023-04-03T06:05:48;14.18;;;9.00;;
22525;SDS011;11429;50.842;4.386;2023-04-03T06:08:14;11.38;;;8.77;;
22525;SDS011;11429;50.842;4.386;2023-04-03T06:10:40;10.43;;;7.88;;
22525;SDS011;11429;50.842;4.386;2023-04-03T06:13:06;11.35;;;7.88;;
22525;SDS011;11429;50.842;4.386;2023-04-03T06:15:32;10.40;;;7.57;;
22525;SDS011;11429;50.842;4.386;2023-04-03T06:17:58;8.05;;;7.25;;
22525;SDS011;11429;50.842;4.386;2023-04-03T06:20:25;9.93;;;7.88;;
22525;SDS011;11429;50.842;4.386;2023-04-03T06:22:50;9.45;;;7.60;;
22525;SDS011;11429;50.842;4.386;2023-04-03T06:25:16;13.00;;;7.28;;
22525;SDS011;11429;50.842;4.386;2023-04-03T06:27:43;10.60;;;7.35;;
22525;SDS011;11429;50.842;4.386;2023-04-03T06:30:10;9.63;;;7.32;;
22525;SDS011;11429;50.842;4.386;2023-04-03T06:32:36;9.82;;;7.25;;
22525;SDS011;11429;50.842;4.386;2023-04-03T06:35:02;12.50;;;7.40;;
22525;SDS011;11429;50.842;4.386;2023-04-03T06:37:29;16.25;;;8.32;;
22525;SDS011;11429;50.842;4.386;2023-04-03T06:39:55;11.73;;;7.85;;
22525;SDS011;11429;50.842;4.386;2023-04-03T06:42:22;10.10;;;7.80;;
22525;SDS011;11429;50.842;4.386;2023-04-03T06:44:47;10.57;;;7.40;;
22525;SDS011;11429;50.842;4.386;2023-04-03T06:47:14;12.38;;;7.93;;
22525;SDS011;11429;50.842;4.386;2023-04-03T06:49:44;13.32;;;7.45;;
22525;SDS011;11429;50.842;4.386;2023-04-03T06:52:10;12.65;;;7.93;;
22525;SDS011;11429;50.842;4.386;2023-04-03T06:54:37;14.00;;;7.75;;
22525;SDS011;11429;50.842;4.386;2023-04-03T06:57:03;10.45;;;7.47;;
22525;SDS011;11429;50.842;4.386;2023-04-03T06:59:29;10.07;;;7.45;;
22525;SDS011;11429;50.842;4.386;2023-04-03T07:01:55;10.65;;;7.63;;
22525;SDS011;11429;50.842;4.386;2023-04-03T07:04:20;12.20;;;8.02;;
22525;SDS011;11429;50.842;4.386;2023-04-03T07:06:47;10.20;;;7.82;;
22525;SDS011;11429;50.842;4.386;2023-04-03T07:09:14;11.93;;;8.07;;
22525;SDS011;11429;50.842;4.386;2023-04-03T07:11:40;12.00;;;8.05;;
22525;SDS011;11429;50.842;4.386;2023-04-03T07:14:07;9.52;;;7.38;;
22525;SDS011;11429;50.842;4.386;2023-04-03T07:16:34;10.48;;;8.27;;
22525;SDS011;11429;50.842;4.386;2023-04-03T07:19:00;11.20;;;8.50;;
22525;SDS011;11429;50.842;4.386;2023-04-03T07:21:27;11.40;;;7.75;;
22525;SDS011;11429;50.842;4.386;2023-04-03T07:23:53;11.95;;;8.50;;
22525;SDS011;11429;50.842;4.386;2023-04-03T07:26:19;9.55;;;8.20;;
22525;SDS011;11429;50.842;4.386;2023-04-03T07:28:46;9.55;;;7.80;;
22525;SDS011;11429;50.842;4.386;2023-04-03T07:31:14;11.98;;;7.93;;
22525;SDS011;11429;50.842;4.386;2023-04-03T07:33:41;10.50;;;7.57;;
22525;SDS011;11429;50.842;4.386;2023-04-03T07:36:07;11.48;;;8.02;;
22525;SDS011;11429;50.842;4.386;2023-04-03T07:38:34;11.68;;;7.68;;
22525;SDS011;11429;50.842;4.386;2023-04-03T07:41:01;8.63;;;6.85;;
22525;SDS011;11429;50.842;4.386;2023-04-03T07:43:27;7.85;;;6.60;;
22525;SDS011;11429;50.842;4.386;2023-04-03T07:45:53;9.35;;;7.55;;
22525;SDS011;11429;50.842;4.386;2023-04-03T07:48:20;11.50;;;7.35;;
22525;SDS011;11429;50.842;4.386;2023-04-03T07:50:47;11.02;;;6.95;;
22525;SDS011;11429;50.842;4.386;2023-04-03T07:53:13;11.07;;;7.15;;
22525;SDS011;11429;50.842;4.386;2023-04-03T07:55:39;10.98;;;7.53;;
22525;SDS011;11429;50.842;4.386;2023-04-03T07:58:12;10.10;;;7.50;;
22525;SDS011;11429;50.842;4.386;2023-04-03T08:00:39;9.60;;;6.47;;
22525;SDS011;11429;50.842;4.386;2023-04-03T08:03:06;10.63;;;6.32;;
22525;SDS011;11429;50.842;4.386;2023-04-03T08:05:38;11.95;;;6.97;;
22525;SDS011;11429;50.842;4.386;2023-04-03T08:08:05;10.00;;;6.55;;
22525;SDS011;11429;50.842;4.386;2023-04-03T08:10:32;10.32;;;7.28;;
22525;SDS011;11429;50.842;4.386;2023-04-03T08:12:58;8.70;;;6.55;;
22525;SDS011;11429;50.842;4.386;2023-04-03T08:15:24;11.07;;;6.82;;
22525;SDS011;11429;50.842;4.386;2023-04-03T08:17:51;8.82;;;7.20;;
22525;SDS011;11429;50.842;4.386;2023-04-03T08:20:17;12.05;;;7.00;;
22525;SDS011;11429;50.842;4.386;2023-04-03T08:22:43;7.85;;;7.03;;
22525;SDS011;11429;50.842;4.386;2023-04-03T08:25:09;9.52;;;6.95;;
22525;SDS011;11429;50.842;4.386;2023-04-03T08:27:35;10.38;;;6.85;;
22525;SDS011;11429;50.842;4.386;2023-04-03T08:30:01;12.15;;;7.40;;
22525;SDS011;11429;50.842;4.386;2023-04-03T08:32:27;8.60;;;6.13;;
22525;SDS011;11429;50.842;4.386;2023-04-03T08:34:53;9.30;;;6.50;;
22525;SDS011;11429;50.842;4.386;2023-04-03T08:37:18;10.40;;;7.07;;
22525;SDS011;11429;50.842;4.386;2023-04-03T08:39:44;7.10;;;6.03;;
22525;SDS011;11429;50.842;4.386;2023-04-03T08:42:19;9.35;;;6.15;;
22525;SDS011;11429;50.842;4.386;2023-04-03T08:47:50;8.15;;;5.28;;
22525;SDS011;11429;50.842;4.386;2023-04-03T08:50:26;9.35;;;5.25;;
22525;SDS011;11429;50.842;4.386;2023-04-03T08:53:05;9.43;;;5.75;;
22525;SDS011;11429;50.842;4.386;2023-04-03T08:55:38;7.95;;;5.25;;
22525;SDS011;11429;50.842;4.386;2023-04-03T08:58:18;7.03;;;4.80;;
22525;SDS011;11429;50.842;4.386;2023-04-03T09:00:56;6.88;;;4.45;;
22525;SDS011;11429;50.842;4.386;2023-04-03T09:03:29;6.95;;;5.30;;
22525;SDS011;11429;50.842;4.386;2023-04-03T09:06:00;9.00;;;4.50;;
22525;SDS011;11429;50.842;4.386;2023-04-03T09:09:02;10.60;;;5.25;;
22525;SDS011;11429;50.842;4.386;2023-04-03T09:12:06;7.32;;;4.55;;
22525;SDS011;11429;50.842;4.386;2023-04-03T09:17:35;9.35;;;3.88;;
22525;SDS011;11429;50.842;4.386;2023-04-03T09:22:43;6.80;;;3.60;;
22525;SDS011;11429;50.842;4.386;2023-04-03T09:25:23;7.93;;;4.07;;
22525;SDS011;11429;50.842;4.386;2023-04-03T09:27:57;5.47;;;3.53;;
22525;SDS011;11429;50.842;4.386;2023-04-03T09:30:26;7.10;;;3.00;;
22525;SDS011;11429;50.842;4.386;2023-04-03T09:32:53;6.18;;;2.97;;
22525;SDS011;11429;50.842;4.386;2023-04-03T09:35:28;6.70;;;3.40;;
22525;SDS011;11429;50.842;4.386;2023-04-03T09:40:39;5.50;;;2.80;;
22525;SDS011;11429;50.842;4.386;2023-04-03T09:46:30;4.47;;;2.40;;
22525;SDS011;11429;50.842;4.386;2023-04-03T09:49:01;6.82;;;2.95;;
22525;SDS011;11429;50.842;4.386;2023-04-03T09:51:29;4.15;;;2.60;;
22525;SDS011;11429;50.842;4.386;2023-04-03T09:53:56;5.35;;;2.53;;
22525;SDS011;11429;50.842;4.386;2023-04-03T09:56:24;6.63;;;2.85;;
22525;SDS011;11429;50.842;4.386;2023-04-03T10:01:25;4.60;;;2.33;;
22525;SDS011;11429;50.842;4.386;2023-04-03T10:06:31;4.45;;;2.25;;
22525;SDS011;11429;50.842;4.386;2023-04-03T10:09:01;6.18;;;2.10;;
22525;SDS011;11429;50.842;4.386;2023-04-03T10:11:30;5.05;;;2.38;;
22525;SDS011;11429;50.842;4.386;2023-04-03T10:14:00;4.00;;;1.88;;
22525;SDS011;11429;50.842;4.386;2023-04-03T10:16:39;4.47;;;2.00;;
22525;SDS011;11429;50.842;4.386;2023-04-03T10:19:31;3.83;;;2.05;;
22525;SDS011;11429;50.842;4.386;2023-04-03T10:22:00;5.30;;;2.70;;
22525;SDS011;11429;50.842;4.386;2023-04-03T10:27:29;5.55;;;2.20;;
22525;SDS011;11429;50.842;4.386;2023-04-03T10:32:35;9.00;;;2.65;;
22525;SDS011;11429;50.842;4.386;2023-04-03T10:35:18;6.97;;;2.60;;
22525;SDS011;11429;50.842;4.386;2023-04-03T10:46:21;6.00;;;2.05;;
22525;SDS011;11429;50.842;4.386;2023-04-03T10:56:41;7.40;;;1.98;;
22525;SDS011;11429;50.842;4.386;2023-04-03T11:01:38;3.00;;;1.70;;
22525;SDS011;11429;50.842;4.386;2023-04-03T11:04:07;4.82;;;1.98;;
22525;SDS011;11429;50.842;4.386;2023-04-03T11:06:47;2.60;;;1.55;;
22525;SDS011;11429;50.842;4.386;2023-04-03T11:09:19;3.33;;;1.70;;
22525;SDS011;11429;50.842;4.386;2023-04-03T11:11:56;4.25;;;1.42;;
22525;SDS011;11429;50.842;4.386;2023-04-03T11:14:33;4.53;;;1.67;;
22525;SDS011;11429;50.842;4.386;2023-04-03T11:25:04;3.83;;;1.50;;
22525;SDS011;11429;50.842;4.386;2023-04-03T11:27:48;3.38;;;1.50;;
22525;SDS011;11429;50.842;4.386;2023-04-03T11:30:58;3.80;;;1.70;;
22525;SDS011;11429;50.842;4.386;2023-04-03T11:33:25;4.63;;;1.70;;
22525;SDS011;11429;50.842;4.386;2023-04-03T11:35:56;7.07;;;2.00;;
22525;SDS011;11429;50.842;4.386;2023-04-03T11:38:35;4.88;;;1.85;;
22525;SDS011;11429;50.842;4.386;2023-04-03T11:41:06;3.42;;;1.80;;
22525;SDS011;11429;50.842;4.386;2023-04-03T11:43:33;5.97;;;2.40;;
22525;SDS011;11429;50.842;4.386;2023-04-03T11:46:06;3.72;;;1.75;;
22525;SDS011;11429;50.842;4.386;2023-04-03T11:53:41;4.30;;;1.90;;
22525;SDS011;11429;50.842;4.386;2023-04-03T12:01:46;3.88;;;1.60;;
22525;SDS011;11429;50.842;4.386;2023-04-03T12:04:14;4.65;;;1.95;;
22525;SDS011;11429;50.842;4.386;2023-04-03T12:11:52;5.80;;;1.83;;
22525;SDS011;11429;50.842;4.386;2023-04-03T12:14:21;7.35;;;1.88;;
22525;SDS011;11429;50.842;4.386;2023-04-03T12:16:49;6.85;;;1.73;;
22525;SDS011;11429;50.842;4.386;2023-04-03T12:24:25;3.65;;;1.73;;
22525;SDS011;11429;50.842;4.386;2023-04-03T12:46:48;3.85;;;1.65;;
22525;SDS011;11429;50.842;4.386;2023-04-03T12:49:24;2.58;;;1.30;;
22525;SDS011;11429;50.842;4.386;2023-04-03T12:51:55;7.03;;;1.58;;
22525;SDS011;11429;50.842;4.386;2023-04-03T12:57:08;2.60;;;1.23;;
22525;SDS011;11429;50.842;4.386;2023-04-03T12:59:40;4.78;;;1.40;;
22525;SDS011;11429;50.842;4.386;2023-04-03T13:04:55;4.80;;;1.63;;
22525;SDS011;11429;50.842;4.386;2023-04-03T13:07:24;4.05;;;1.45;;
22525;SDS011;11429;50.842;4.386;2023-04-03T13:12:26;5.22;;;1.50;;
22525;SDS011;11429;50.842;4.386;2023-04-03T13:14:52;3.78;;;1.40;;
22525;SDS011;11429;50.842;4.386;2023-04-03T13:17:20;3.25;;;1.40;;
22525;SDS011;11429;50.842;4.386;2023-04-03T13:19:46;2.85;;;1.20;;
22525;SDS011;11429;50.842;4.386;2023-04-03T13:24:53;3.78;;;1.20;;
22525;SDS011;11429;50.842;4.386;2023-04-03T13:27:22;4.07;;;1.60;;
22525;SDS011;11429;50.842;4.386;2023-04-03T13:29:54;3.75;;;1.40;;
22525;SDS011;11429;50.842;4.386;2023-04-03T13:32:23;2.88;;;1.30;;
22525;SDS011;11429;50.842;4.386;2023-04-03T13:34:51;2.78;;;1.35;;
22525;SDS011;11429;50.842;4.386;2023-04-03T13:42:27;3.20;;;1.25;;
22525;SDS011;11429;50.842;4.386;2023-04-03T13:47:42;4.40;;;1.38;;
22525;SDS011;11429;50.842;4.386;2023-04-03T13:52:42;3.35;;;1.80;;
22525;SDS011;11429;50.842;4.386;2023-04-03T13:55:34;3.83;;;1.52;;
22525;SDS011;11429;50.842;4.386;2023-04-03T14:03:39;3.47;;;1.25;;
22525;SDS011;11429;50.842;4.386;2023-04-03T14:06:10;3.25;;;1.75;;
22525;SDS011;11429;50.842;4.386;2023-04-03T14:08:40;5.68;;;1.60;;
22525;SDS011;11429;50.842;4.386;2023-04-03T14:11:12;4.70;;;1.90;;
22525;SDS011;11429;50.842;4.386;2023-04-03T14:13:44;6.20;;;1.90;;
22525;SDS011;11429;50.842;4.386;2023-04-03T14:16:15;4.32;;;1.17;;
22525;SDS011;11429;50.842;4.386;2023-04-03T14:18:46;2.47;;;1.30;;
22525;SDS011;11429;50.842;4.386;2023-04-03T14:21:14;4.65;;;1.88;;
22525;SDS011;11429;50.842;4.386;2023-04-03T14:23:44;3.45;;;1.52;;
22525;SDS011;11429;50.842;4.386;2023-04-03T14:26:40;3.85;;;1.38;;
22525;SDS011;11429;50.842;4.386;2023-04-03T14:29:09;5.50;;;1.63;;
22525;SDS011;11429;50.842;4.386;2023-04-03T14:31:36;3.10;;;1.20;;
22525;SDS011;11429;50.842;4.386;2023-04-03T14:34:09;4.90;;;1.70;;
22525;SDS011;11429;50.842;4.386;2023-04-03T14:36:45;3.67;;;1.42;;
22525;SDS011;11429;50.842;4.386;2023-04-03T14:39:34;3.83;;;1.58;;
22525;SDS011;11429;50.842;4.386;2023-04-03T14:42:00;5.43;;;1.55;;
22525;SDS011;11429;50.842;4.386;2023-04-03T14:44:48;3.88;;;1.70;;
22525;SDS011;11429;50.842;4.386;2023-04-03T14:47:16;5.30;;;1.77;;
22525;SDS011;11429;50.842;4.386;2023-04-03T14:50:14;4.43;;;1.60;;
22525;SDS011;11429;50.842;4.386;2023-04-03T14:52:46;2.88;;;1.58;;
22525;SDS011;11429;50.842;4.386;2023-04-03T14:55:17;3.40;;;1.35;;
22525;SDS011;11429;50.842;4.386;2023-04-03T14:57:44;2.58;;;1.05;;
22525;SDS011;11429;50.842;4.386;2023-04-03T15:00:17;6.88;;;2.00;;
22525;SDS011;11429;50.842;4.386;2023-04-03T15:02:45;3.08;;;1.63;;
22525;SDS011;11429;50.842;4.386;2023-04-03T15:05:12;3.53;;;1.40;;
22525;SDS011;11429;50.842;4.386;2023-04-03T15:07:41;4.30;;;1.40;;
22525;SDS011;11429;50.842;4.386;2023-04-03T15:10:21;3.60;;;1.35;;
22525;SDS011;11429;50.842;4.386;2023-04-03T15:12:52;3.88;;;1.40;;
22525;SDS011;11429;50.842;4.386;2023-04-03T15:15:19;5.13;;;1.55;;
22525;SDS011;11429;50.842;4.386;2023-04-03T15:17:46;4.13;;;1.42;;
22525;SDS011;11429;50.842;4.386;2023-04-03T15:20:23;2.20;;;1.10;;
22525;SDS011;11429;50.842;4.386;2023-04-03T15:22:51;1.67;;;0.90;;
22525;SDS011;11429;50.842;4.386;2023-04-03T15:25:17;3.75;;;1.63;;
22525;SDS011;11429;50.842;4.386;2023-04-03T15:27:43;3.85;;;1.50;;
22525;SDS011;11429;50.842;4.386;2023-04-03T15:30:16;3.97;;;1.52;;
22525;SDS011;11429;50.842;4.386;2023-04-03T15:32:43;4.70;;;1.55;;
22525;SDS011;11429;50.842;4.386;2023-04-03T15:35:09;2.67;;;1.55;;
22525;SDS011;11429;50.842;4.386;2023-04-03T15:37:35;3.85;;;1.45;;
22525;SDS011;11429;50.842;4.386;2023-04-03T15:40:02;3.05;;;1.20;;
22525;SDS011;11429;50.842;4.386;2023-04-03T15:42:29;3.97;;;1.65;;
22525;SDS011;11429;50.842;4.386;2023-04-03T15:44:55;5.85;;;1.50;;
22525;SDS011;11429;50.842;4.386;2023-04-03T15:47:21;3.00;;;1.50;;
22525;SDS011;11429;50.842;4.386;2023-04-03T15:49:47;3.38;;;1.75;;
22525;SDS011;11429;50.842;4.386;2023-04-03T15:52:13;5.10;;;1.60;;
22525;SDS011;11429;50.842;4.386;2023-04-03T15:54:38;5.95;;;1.50;;
22525;SDS011;11429;50.842;4.386;2023-04-03T15:57:05;5.20;;;1.65;;
22525;SDS011;11429;50.842;4.386;2023-04-03T15:59:30;7.10;;;2.22;;
22525;SDS011;11429;50.842;4.386;2023-04-03T16:09:04;4.97;;;1.90;;
22525;SDS011;11429;50.842;4.386;2023-04-03T16:11:34;4.63;;;1.83;;
22525;SDS011;11429;50.842;4.386;2023-04-03T16:14:02;4.68;;;1.85;;
22525;SDS011;11429;50.842;4.386;2023-04-03T16:16:28;6.93;;;1.92;;
22525;SDS011;11429;50.842;4.386;2023-04-03T16:18:55;3.53;;;1.55;;
22525;SDS011;11429;50.842;4.386;2023-04-03T16:21:21;5.43;;;2.17;;
22525;SDS011;11429;50.842;4.386;2023-04-03T16:23:48;3.28;;;1.83;;
22525;SDS011;11429;50.842;4.386;2023-04-03T16:26:14;5.00;;;2.00;;
22525;SDS011;11429;50.842;4.386;2023-04-03T16:28:40;3.45;;;1.77;;
22525;SDS011;11429;50.842;4.386;2023-04-03T16:31:06;4.30;;;2.00;;
22525;SDS011;11429;50.842;4.386;2023-04-03T16:33:32;3.92;;;2.00;;
22525;SDS011;11429;50.842;4.386;2023-04-03T16:35:59;5.68;;;1.88;;
22525;SDS011;11429;50.842;4.386;2023-04-03T16:38:25;3.60;;;1.77;;
22525;SDS011;11429;50.842;4.386;2023-04-03T16:40:51;5.50;;;2.17;;
22525;SDS011;11429;50.842;4.386;2023-04-03T16:43:22;4.70;;;1.95;;
22525;SDS011;11429;50.842;4.386;2023-04-03T16:45:47;4.43;;;2.20;;
22525;SDS011;11429;50.842;4.386;2023-04-03T16:48:13;5.35;;;2.00;;
22525;SDS011;11429;50.842;4.386;2023-04-03T16:50:39;3.67;;;1.85;;
22525;SDS011;11429;50.842;4.386;2023-04-03T16:53:05;6.47;;;2.15;;
22525;SDS011;11429;50.842;4.386;2023-04-03T16:55:34;4.90;;;1.90;;
22525;SDS011;11429;50.842;4.386;2023-04-03T16:58:01;3.72;;;2.10;;
22525;SDS011;11429;50.842;4.386;2023-04-03T17:00:29;5.20;;;2.17;;
22525;SDS011;11429;50.842;4.386;2023-04-03T17:02:55;3.97;;;2.00;;
22525;SDS011;11429;50.842;4.386;2023-04-03T17:05:21;5.55;;;1.80;;
22525;SDS011;11429;50.842;4.386;2023-04-03T17:07:50;4.72;;;2.00;;